sensor_id;sensor_type;location;lat;lon;timestamp;pressure;altitude;pressure_sealevel;temperature;humidity
36834;BME280;48003;52.084;5.224;2023-04-09T00:00:41;102682.0;;;13.1;70.58
36834;BME280;48003;52.084;5.224;2023-04-09T00:02:18;102683.0;;;13.12;70.52
36834;BME280;48003;52.084;5.224;2023-04-09T00:03:54;102683.0;;;13.14;70.61
36834;BME280;48003;52.084;5.224;2023-04-09T00:05:31;102684.99999999999;;;13.15;70.39
36834;BME280;48003;52.084;5.224;2023-04-09T00:08:43;102686.99999999999;;;13.14;70.48
36834;BME280;48003;52.084;5.224;2023-04-09T00:10:19;102683.99999999999;;;13.15;70.33
36834;BME280;48003;52.084;5.224;2023-04-09T00:11:56;102681.0;;;13.16;70.33
36834;BME280;48003;52.084;5.224;2023-04-09T00:15:10;102679.0;;;13.19;70.36
36834;BME280;48003;52.084;5.224;2023-04-09T00:16:47;102682.0;;;13.21;70.11
36834;BME280;48003;52.084;5.224;2023-04-09T00:18:24;102675.0;;;13.2;70.02
36834;BME280;48003;52.084;5.224;2023-04-09T00:21:36;102679.0;;;13.18;70.27
36834;BME280;48003;52.084;5.224;2023-04-09T00:24:48;102683.0;;;13.21;69.97
36834;BME280;48003;52.084;5.224;2023-04-09T00:29:39;102675.0;;;13.22;69.94
36834;BME280;48003;52.084;5.224;2023-04-09T00:31:15;102672.0;;;13.22;69.92
36834;BME280;48003;52.084;5.224;2023-04-09T00:32:51;102672.0;;;13.22;70.05
36834;BME280;48003;52.084;5.224;2023-04-09T00:36:03;102670.0;;;13.25;70.08
36834;BME280;48003;52.084;5.224;2023-04-09T00:37:40;102667.0;;;13.22;69.88
36834;BME280;48003;52.084;5.224;2023-04-09T00:39:17;102666.00000000001;;;13.24;69.95
36834;BME280;48003;52.084;5.224;2023-04-09T00:42:31;102665.00000000001;;;13.29;69.89
36834;BME280;48003;52.084;5.224;2023-04-09T00:44:07;102664.00000000001;;;13.37;69.77
36834;BME280;48003;52.084;5.224;2023-04-09T00:45:43;102663.00000000001;;;13.34;69.41
36834;BME280;48003;52.084;5.224;2023-04-09T00:47:20;102659.99999999999;;;13.33;69.53
36834;BME280;48003;52.084;5.224;2023-04-09T00:50:33;102659.99999999999;;;13.38;69.59
36834;BME280;48003;52.084;5.224;2023-04-09T00:52:11;102654.0;;;13.34;69.27
36834;BME280;48003;52.084;5.224;2023-04-09T00:53:47;102658.0;;;13.38;69.47
36834;BME280;48003;52.084;5.224;2023-04-09T00:57:00;102653.0;;;13.43;69.24
36834;BME280;48003;52.084;5.224;2023-04-09T00:58:36;102653.0;;;13.38;69.47
36834;BME280;48003;52.084;5.224;2023-04-09T01:00:13;102653.0;;;13.36;69.58
36834;BME280;48003;52.084;5.224;2023-04-09T01:03:27;102655.0;;;13.32;69.45
36834;BME280;48003;52.084;5.224;2023-04-09T01:05:04;102655.0;;;13.31;69.49
36834;BME280;48003;52.084;5.224;2023-04-09T01:06:44;102651.0;;;13.31;69.61
36834;BME280;48003;52.084;5.224;2023-04-09T01:08:31;102652.0;;;13.28;69.58
36834;BME280;48003;52.084;5.224;2023-04-09T01:12:08;102654.0;;;13.32;69.53
36834;BME280;48003;52.084;5.224;2023-04-09T01:13:55;102651.0;;;13.3;69.63
36834;BME280;48003;52.084;5.224;2023-04-09T01:15:43;102644.0;;;13.27;69.66
36834;BME280;48003;52.084;5.224;2023-04-09T01:17:31;102646.0;;;13.28;69.91
36834;BME280;48003;52.084;5.224;2023-04-09T01:19:27;102639.00000000001;;;13.3;69.74
36834;BME280;48003;52.084;5.224;2023-04-09T01:21:10;102642.0;;;13.3;69.55
36834;BME280;48003;52.084;5.224;2023-04-09T01:24:43;102642.0;;;13.35;69.37
36834;BME280;48003;52.084;5.224;2023-04-09T01:26:43;102639.00000000001;;;13.32;69.5
36834;BME280;48003;52.084;5.224;2023-04-09T01:28:32;102642.0;;;13.32;69.33
36834;BME280;48003;52.084;5.224;2023-04-09T01:30:12;102640.00000000001;;;13.35;69.27
36834;BME280;48003;52.084;5.224;2023-04-09T01:33:31;102633.99999999999;;;13.28;69.36
36834;BME280;48003;52.084;5.224;2023-04-09T01:36:50;102636.99999999999;;;13.28;69.63
36834;BME280;48003;52.084;5.224;2023-04-09T01:38:31;102634.99999999999;;;13.26;69.74
36834;BME280;48003;52.084;5.224;2023-04-09T01:40:10;102634.99999999999;;;13.31;69.62
36834;BME280;48003;52.084;5.224;2023-04-09T01:41:47;102630.0;;;13.33;69.45
36834;BME280;48003;52.084;5.224;2023-04-09T01:45:05;102636.99999999999;;;13.31;69.41
36834;BME280;48003;52.084;5.224;2023-04-09T01:46:42;102630.0;;;13.38;69.3
36834;BME280;48003;52.084;5.224;2023-04-09T01:48:21;102633.99999999999;;;13.37;69.08
36834;BME280;48003;52.084;5.224;2023-04-09T01:51:35;102638.00000000001;;;13.33;69.27
36834;BME280;48003;52.084;5.224;2023-04-09T01:53:12;102634.99999999999;;;13.32;69.3
36834;BME280;48003;52.084;5.224;2023-04-09T01:54:48;102633.99999999999;;;13.3;69.39
36834;BME280;48003;52.084;5.224;2023-04-09T01:56:25;102631.0;;;13.27;69.41
36834;BME280;48003;52.084;5.224;2023-04-09T01:59:38;102630.0;;;13.22;69.58
36834;BME280;48003;52.084;5.224;2023-04-09T02:01:19;102632.0;;;13.23;69.86
36834;BME280;48003;52.084;5.224;2023-04-09T02:03:04;102632.0;;;13.22;69.94
36834;BME280;48003;52.084;5.224;2023-04-09T02:04:46;102633.0;;;13.23;69.62
36834;BME280;48003;52.084;5.224;2023-04-09T02:08:11;102634.99999999999;;;13.27;69.77
36834;BME280;48003;52.084;5.224;2023-04-09T02:09:52;102633.99999999999;;;13.26;69.58
36834;BME280;48003;52.084;5.224;2023-04-09T02:11:32;102633.99999999999;;;13.3;69.5
36834;BME280;48003;52.084;5.224;2023-04-09T02:13:14;102630.0;;;13.31;69.47
36834;BME280;48003;52.084;5.224;2023-04-09T02:16:30;102629.0;;;13.41;69.06
36834;BME280;48003;52.084;5.224;2023-04-09T02:18:20;102626.0;;;13.44;69.05
36834;BME280;48003;52.084;5.224;2023-04-09T02:19:56;102624.0;;;13.39;68.95
36834;BME280;48003;52.084;5.224;2023-04-09T02:21:33;102622.0;;;13.34;69.3
36834;BME280;48003;52.084;5.224;2023-04-09T02:24:47;102621.0;;;13.35;69.38
36834;BME280;48003;52.084;5.224;2023-04-09T02:26:23;102620.0;;;13.34;69.33
36834;BME280;48003;52.084;5.224;2023-04-09T02:28:00;102620.0;;;13.3;69.36
36834;BME280;48003;52.084;5.224;2023-04-09T02:31:14;102622.0;;;13.26;69.66
36834;BME280;48003;52.084;5.224;2023-04-09T02:32:51;102618.0;;;13.2;69.83
36834;BME280;48003;52.084;5.224;2023-04-09T02:34:27;102621.0;;;13.19;70.0
36834;BME280;48003;52.084;5.224;2023-04-09T02:37:41;102619.0;;;13.16;70.23
36834;BME280;48003;52.084;5.224;2023-04-09T02:39:17;102618.0;;;13.16;70.28
36834;BME280;48003;52.084;5.224;2023-04-09T02:40:53;102617.0;;;13.16;70.05
36834;BME280;48003;52.084;5.224;2023-04-09T02:42:30;102617.0;;;13.15;70.22
36834;BME280;48003;52.084;5.224;2023-04-09T02:45:42;102615.00000000001;;;13.17;70.38
36834;BME280;48003;52.084;5.224;2023-04-09T02:47:18;102614.00000000001;;;13.2;70.05
36834;BME280;48003;52.084;5.224;2023-04-09T02:48:54;102608.0;;;13.21;70.17
36834;BME280;48003;52.084;5.224;2023-04-09T02:52:08;102602.0;;;13.29;69.74
36834;BME280;48003;52.084;5.224;2023-04-09T02:53:45;102605.0;;;13.21;70.03
36834;BME280;48003;52.084;5.224;2023-04-09T02:55:21;102608.0;;;13.19;70.3
36834;BME280;48003;52.084;5.224;2023-04-09T02:58:34;102607.0;;;13.16;70.08
36834;BME280;48003;52.084;5.224;2023-04-09T03:00:12;102605.0;;;13.18;70.11
36834;BME280;48003;52.084;5.224;2023-04-09T03:01:48;102604.0;;;13.2;69.74
36834;BME280;48003;52.084;5.224;2023-04-09T03:03:24;102601.0;;;13.22;69.8
36834;BME280;48003;52.084;5.224;2023-04-09T03:06:36;102602.0;;;13.22;70.06
36834;BME280;48003;52.084;5.224;2023-04-09T03:08:12;102600.0;;;13.2;69.92
36834;BME280;48003;52.084;5.224;2023-04-09T03:09:48;102601.0;;;13.17;70.11
36834;BME280;48003;52.084;5.224;2023-04-09T03:13:02;102597.0;;;13.2;69.86
36834;BME280;48003;52.084;5.224;2023-04-09T03:14:39;102595.0;;;13.18;69.88
36834;BME280;48003;52.084;5.224;2023-04-09T03:16:15;102594.0;;;13.16;70.22
36834;BME280;48003;52.084;5.224;2023-04-09T03:19:27;102592.0;;;13.13;70.52
36834;BME280;48003;52.084;5.224;2023-04-09T03:21:06;102590.00000000001;;;13.12;70.31
36834;BME280;48003;52.084;5.224;2023-04-09T03:22:42;102590.00000000001;;;13.12;70.45
36834;BME280;48003;52.084;5.224;2023-04-09T03:24:19;102584.99999999999;;;13.15;70.41
36834;BME280;48003;52.084;5.224;2023-04-09T03:27:37;102583.0;;;13.17;70.22
36834;BME280;48003;52.084;5.224;2023-04-09T03:29:13;102583.99999999999;;;13.27;69.83
36834;BME280;48003;52.084;5.224;2023-04-09T03:30:49;102577.0;;;13.24;69.59
36834;BME280;48003;52.084;5.224;2023-04-09T03:34:01;102577.0;;;13.23;69.69
36834;BME280;48003;52.084;5.224;2023-04-09T03:35:37;102578.0;;;13.2;69.52
36834;BME280;48003;52.084;5.224;2023-04-09T03:37:14;102582.0;;;13.19;69.48
36834;BME280;48003;52.084;5.224;2023-04-09T03:40:26;102580.0;;;13.19;69.48
36834;BME280;48003;52.084;5.224;2023-04-09T03:42:02;102578.0;;;13.14;69.86
36834;BME280;48003;52.084;5.224;2023-04-09T03:43:39;102578.0;;;13.13;69.87
36834;BME280;48003;52.084;5.224;2023-04-09T03:45:15;102576.0;;;13.09;70.05
36834;BME280;48003;52.084;5.224;2023-04-09T03:48:28;102577.0;;;13.12;70.27
36834;BME280;48003;52.084;5.224;2023-04-09T03:50:05;102575.0;;;13.12;70.17
36834;BME280;48003;52.084;5.224;2023-04-09T03:51:41;102572.0;;;13.09;70.36
36834;BME280;48003;52.084;5.224;2023-04-09T03:54:53;102574.0;;;13.05;70.63
36834;BME280;48003;52.084;5.224;2023-04-09T03:56:29;102571.0;;;13.13;70.34
36834;BME280;48003;52.084;5.224;2023-04-09T03:58:06;102573.0;;;13.19;70.19
36834;BME280;48003;52.084;5.224;2023-04-09T04:01:20;102570.0;;;13.19;70.09
36834;BME280;48003;52.084;5.224;2023-04-09T04:02:56;102569.0;;;13.13;70.16
36834;BME280;48003;52.084;5.224;2023-04-09T04:04:32;102571.0;;;13.13;69.83
36834;BME280;48003;52.084;5.224;2023-04-09T04:06:08;102567.0;;;13.13;69.8
36834;BME280;48003;52.084;5.224;2023-04-09T04:09:21;102572.0;;;13.11;69.89
36834;BME280;48003;52.084;5.224;2023-04-09T04:11:02;102568.0;;;13.09;70.03
36834;BME280;48003;52.084;5.224;2023-04-09T04:12:39;102567.0;;;13.03;70.16
36834;BME280;48003;52.084;5.224;2023-04-09T04:15:52;102563.00000000001;;;13.03;70.28
36834;BME280;48003;52.084;5.224;2023-04-09T04:17:28;102559.99999999999;;;13.07;70.09
36834;BME280;48003;52.084;5.224;2023-04-09T04:19:05;102559.99999999999;;;13.03;70.27
36834;BME280;48003;52.084;5.224;2023-04-09T04:20:42;102561.99999999999;;;13.01;70.28
36834;BME280;48003;52.084;5.224;2023-04-09T04:23:54;102559.99999999999;;;13.04;70.49
36834;BME280;48003;52.084;5.224;2023-04-09T04:25:31;102559.99999999999;;;13.0;70.27
36834;BME280;48003;52.084;5.224;2023-04-09T04:27:07;102556.0;;;13.02;70.11
36834;BME280;48003;52.084;5.224;2023-04-09T04:30:19;102557.0;;;13.01;70.27
36834;BME280;48003;52.084;5.224;2023-04-09T04:31:56;102555.0;;;13.03;70.33
36834;BME280;48003;52.084;5.224;2023-04-09T04:33:33;102553.0;;;13.06;70.02
36834;BME280;48003;52.084;5.224;2023-04-09T04:36:45;102557.0;;;13.03;70.5
36834;BME280;48003;52.084;5.224;2023-04-09T04:38:22;102557.0;;;13.05;70.56
36834;BME280;48003;52.084;5.224;2023-04-09T04:40:00;102556.0;;;13.04;70.25
36834;BME280;48003;52.084;5.224;2023-04-09T04:41:37;102558.0;;;13.05;69.78
36834;BME280;48003;52.084;5.224;2023-04-09T04:44:49;102556.0;;;13.06;69.86
36834;BME280;48003;52.084;5.224;2023-04-09T04:46:26;102558.0;;;13.27;69.41
36834;BME280;48003;52.084;5.224;2023-04-09T04:48:03;102554.0;;;13.09;69.86
36834;BME280;48003;52.084;5.224;2023-04-09T04:51:16;102559.99999999999;;;13.06;70.05
36834;BME280;48003;52.084;5.224;2023-04-09T04:52:52;102565.00000000001;;;12.83;69.89
36834;BME280;48003;52.084;5.224;2023-04-09T04:54:28;102557.0;;;13.21;69.08
36834;BME280;48003;52.084;5.224;2023-04-09T04:57:40;102553.0;;;13.21;69.08
36834;BME280;48003;52.084;5.224;2023-04-09T04:59:17;102552.0;;;13.16;68.87
36834;BME280;48003;52.084;5.224;2023-04-09T05:00:53;102554.0;;;13.11;69.08
36834;BME280;48003;52.084;5.224;2023-04-09T05:04:05;102556.0;;;13.11;69.3
36834;BME280;48003;52.084;5.224;2023-04-09T05:05:41;102557.0;;;13.11;69.27
36834;BME280;48003;52.084;5.224;2023-04-09T05:07:17;102557.0;;;13.06;69.55
36834;BME280;48003;52.084;5.224;2023-04-09T05:08:53;102552.0;;;13.03;69.62
36834;BME280;48003;52.084;5.224;2023-04-09T05:12:05;102557.0;;;13.06;69.67
36834;BME280;48003;52.084;5.224;2023-04-09T05:13:42;102553.0;;;13.06;69.49
36834;BME280;48003;52.084;5.224;2023-04-09T05:15:19;102557.0;;;13.04;69.81
36834;BME280;48003;52.084;5.224;2023-04-09T05:18:31;102555.0;;;13.06;69.75
36834;BME280;48003;52.084;5.224;2023-04-09T05:20:08;102554.0;;;13.02;70.16
36834;BME280;48003;52.084;5.224;2023-04-09T05:21:45;102554.0;;;13.01;70.41
36834;BME280;48003;52.084;5.224;2023-04-09T05:24:57;102559.99999999999;;;13.06;70.19
36834;BME280;48003;52.084;5.224;2023-04-09T05:26:34;102558.99999999999;;;13.15;69.62
36834;BME280;48003;52.084;5.224;2023-04-09T05:28:10;102564.00000000001;;;13.16;69.36
36834;BME280;48003;52.084;5.224;2023-04-09T05:29:47;102567.0;;;13.1;69.41
36834;BME280;48003;52.084;5.224;2023-04-09T05:32:59;102568.0;;;13.06;69.61
36834;BME280;48003;52.084;5.224;2023-04-09T05:34:35;102571.0;;;13.07;69.55
36834;BME280;48003;52.084;5.224;2023-04-09T05:36:14;102568.0;;;13.1;69.47
36834;BME280;48003;52.084;5.224;2023-04-09T05:39:28;102567.0;;;13.12;69.3
36834;BME280;48003;52.084;5.224;2023-04-09T05:41:04;102567.0;;;13.14;69.17
36834;BME280;48003;52.084;5.224;2023-04-09T05:42:40;102567.0;;;13.2;68.52
36834;BME280;48003;52.084;5.224;2023-04-09T05:45:52;102569.0;;;13.2;68.42
36834;BME280;48003;52.084;5.224;2023-04-09T05:47:29;102572.0;;;13.19;68.3
36834;BME280;48003;52.084;5.224;2023-04-09T05:49:05;102575.0;;;13.21;68.44
36834;BME280;48003;52.084;5.224;2023-04-09T05:50:48;102572.0;;;13.34;67.95
36834;BME280;48003;52.084;5.224;2023-04-09T05:54:02;102575.0;;;13.25;68.05
36834;BME280;48003;52.084;5.224;2023-04-09T05:55:38;102573.0;;;13.45;67.1
36834;BME280;48003;52.084;5.224;2023-04-09T05:57:14;102573.0;;;13.35;67.25
36834;BME280;48003;52.084;5.224;2023-04-09T06:00:27;102575.0;;;13.36;67.2
36834;BME280;48003;52.084;5.224;2023-04-09T06:02:03;102577.0;;;13.29;67.56
36834;BME280;48003;52.084;5.224;2023-04-09T06:03:41;102581.0;;;13.31;67.31
36834;BME280;48003;52.084;5.224;2023-04-09T06:05:18;102578.0;;;13.36;67.33
36834;BME280;48003;52.084;5.224;2023-04-09T06:08:30;102583.99999999999;;;13.27;66.97
36834;BME280;48003;52.084;5.224;2023-04-09T06:10:07;102582.0;;;13.25;66.02
36834;BME280;48003;52.084;5.224;2023-04-09T06:11:44;102583.0;;;13.26;65.64
36834;BME280;48003;52.084;5.224;2023-04-09T06:14:56;102586.99999999999;;;12.88;66.3
36834;BME280;48003;52.084;5.224;2023-04-09T06:16:33;102588.00000000001;;;13.14;65.83
36834;BME280;48003;52.084;5.224;2023-04-09T06:18:10;102590.00000000001;;;12.53;67.2
36834;BME280;48003;52.084;5.224;2023-04-09T06:21:22;102593.0;;;12.69;67.28
36834;BME280;48003;52.084;5.224;2023-04-09T06:22:59;102591.00000000001;;;13.19;65.72
36834;BME280;48003;52.084;5.224;2023-04-09T06:24:35;102590.00000000001;;;13.22;65.85
36834;BME280;48003;52.084;5.224;2023-04-09T06:26:12;102592.0;;;13.34;65.36
36834;BME280;48003;52.084;5.224;2023-04-09T06:29:25;102590.00000000001;;;13.32;65.27
36834;BME280;48003;52.084;5.224;2023-04-09T06:31:01;102590.00000000001;;;13.34;65.35
36834;BME280;48003;52.084;5.224;2023-04-09T06:32:37;102593.0;;;13.27;65.33
36834;BME280;48003;52.084;5.224;2023-04-09T06:35:49;102592.0;;;13.48;64.75
36834;BME280;48003;52.084;5.224;2023-04-09T06:37:26;102590.00000000001;;;13.43;64.72
36834;BME280;48003;52.084;5.224;2023-04-09T06:39:02;102589.00000000001;;;13.39;65.33
36834;BME280;48003;52.084;5.224;2023-04-09T06:42:14;102592.0;;;13.34;65.41
36834;BME280;48003;52.084;5.224;2023-04-09T06:43:51;102591.00000000001;;;13.28;65.89
36834;BME280;48003;52.084;5.224;2023-04-09T06:45:28;102591.00000000001;;;13.3;65.94
36834;BME280;48003;52.084;5.224;2023-04-09T06:48:41;102594.0;;;13.28;65.86
36834;BME280;48003;52.084;5.224;2023-04-09T06:50:17;102596.0;;;13.25;66.16
36834;BME280;48003;52.084;5.224;2023-04-09T06:51:54;102598.0;;;13.39;65.77
36834;BME280;48003;52.084;5.224;2023-04-09T06:53:30;102597.0;;;13.45;64.97
36834;BME280;48003;52.084;5.224;2023-04-09T06:56:43;102595.0;;;13.51;64.94
36834;BME280;48003;52.084;5.224;2023-04-09T06:58:19;102593.0;;;13.5;64.35
36834;BME280;48003;52.084;5.224;2023-04-09T06:59:55;102597.0;;;13.45;64.7
36834;BME280;48003;52.084;5.224;2023-04-09T07:03:09;102596.0;;;13.33;65.06
36834;BME280;48003;52.084;5.224;2023-04-09T07:04:45;102597.0;;;13.44;64.58
36834;BME280;48003;52.084;5.224;2023-04-09T07:06:21;102595.0;;;13.63;64.27
36834;BME280;48003;52.084;5.224;2023-04-09T07:09:33;102597.0;;;13.73;63.87
36834;BME280;48003;52.084;5.224;2023-04-09T07:11:09;102595.0;;;13.63;63.97
36834;BME280;48003;52.084;5.224;2023-04-09T07:12:45;102601.0;;;13.55;64.47
36834;BME280;48003;52.084;5.224;2023-04-09T07:14:21;102600.0;;;13.47;65.16
36834;BME280;48003;52.084;5.224;2023-04-09T07:17:34;102603.0;;;13.39;65.24
36834;BME280;48003;52.084;5.224;2023-04-09T07:19:11;102600.0;;;13.39;65.41
36834;BME280;48003;52.084;5.224;2023-04-09T07:20:47;102601.0;;;13.38;65.5
36834;BME280;48003;52.084;5.224;2023-04-09T07:24:02;102602.0;;;13.38;65.52
36834;BME280;48003;52.084;5.224;2023-04-09T07:25:40;102603.0;;;13.44;65.41
36834;BME280;48003;52.084;5.224;2023-04-09T07:27:15;102599.0;;;13.56;64.58
36834;BME280;48003;52.084;5.224;2023-04-09T07:30:28;102600.0;;;13.65;64.55
36834;BME280;48003;52.084;5.224;2023-04-09T07:32:04;102600.0;;;13.64;64.74
36834;BME280;48003;52.084;5.224;2023-04-09T07:33:41;102600.0;;;13.62;64.99
36834;BME280;48003;52.084;5.224;2023-04-09T07:35:18;102602.0;;;13.65;65.05
36834;BME280;48003;52.084;5.224;2023-04-09T07:38:30;102600.0;;;13.73;64.58
36834;BME280;48003;52.084;5.224;2023-04-09T07:40:07;102598.0;;;13.77;64.53
36834;BME280;48003;52.084;5.224;2023-04-09T07:41:44;102597.0;;;13.8;64.31
36834;BME280;48003;52.084;5.224;2023-04-09T07:44:56;102595.0;;;13.73;64.41
36834;BME280;48003;52.084;5.224;2023-04-09T07:46:32;102600.0;;;13.67;65.22
36834;BME280;48003;52.084;5.224;2023-04-09T07:48:08;102594.0;;;13.69;65.2
36834;BME280;48003;52.084;5.224;2023-04-09T07:51:21;102594.0;;;13.68;65.23
36834;BME280;48003;52.084;5.224;2023-04-09T07:52:57;102593.0;;;13.7;65.35
36834;BME280;48003;52.084;5.224;2023-04-09T07:54:33;102597.0;;;13.59;64.58
36834;BME280;48003;52.084;5.224;2023-04-09T07:56:10;102590.00000000001;;;13.8;63.55
36834;BME280;48003;52.084;5.224;2023-04-09T07:59:22;102591.00000000001;;;13.67;63.34
36834;BME280;48003;52.084;5.224;2023-04-09T08:00:59;102592.0;;;13.96;63.05
36834;BME280;48003;52.084;5.224;2023-04-09T08:02:35;102593.0;;;14.07;62.86
36834;BME280;48003;52.084;5.224;2023-04-09T08:05:47;102591.00000000001;;;14.07;62.61
36834;BME280;48003;52.084;5.224;2023-04-09T08:07:23;102592.0;;;13.89;63.09
36834;BME280;48003;52.084;5.224;2023-04-09T08:09:00;102592.0;;;14.13;62.87
36834;BME280;48003;52.084;5.224;2023-04-09T08:12:14;102595.0;;;14.2;62.62
36834;BME280;48003;52.084;5.224;2023-04-09T08:13:50;102595.0;;;14.21;63.06
36834;BME280;48003;52.084;5.224;2023-04-09T08:15:26;102595.0;;;14.19;63.31
36834;BME280;48003;52.084;5.224;2023-04-09T08:18:39;102594.0;;;14.18;63.36
36834;BME280;48003;52.084;5.224;2023-04-09T08:20:15;102598.0;;;14.2;62.45
36834;BME280;48003;52.084;5.224;2023-04-09T08:21:52;102594.0;;;14.25;62.35
36834;BME280;48003;52.084;5.224;2023-04-09T08:23:28;102595.0;;;14.3;62.34
36834;BME280;48003;52.084;5.224;2023-04-09T08:28:18;102594.0;;;14.35;61.98
36834;BME280;48003;52.084;5.224;2023-04-09T08:29:54;102592.0;;;14.44;61.62
36834;BME280;48003;52.084;5.224;2023-04-09T08:33:08;102595.0;;;14.42;61.49
36834;BME280;48003;52.084;5.224;2023-04-09T08:34:44;102597.0;;;14.61;60.48
36834;BME280;48003;52.084;5.224;2023-04-09T08:36:20;102601.0;;;14.55;60.64
36834;BME280;48003;52.084;5.224;2023-04-09T08:39:34;102595.0;;;14.55;60.5
36834;BME280;48003;52.084;5.224;2023-04-09T08:41:16;102593.0;;;14.53;60.45
36834;BME280;48003;52.084;5.224;2023-04-09T08:42:54;102592.0;;;14.68;59.9
36834;BME280;48003;52.084;5.224;2023-04-09T08:44:31;102586.99999999999;;;14.8;59.93
36834;BME280;48003;52.084;5.224;2023-04-09T08:47:47;102586.99999999999;;;14.82;59.68
36834;BME280;48003;52.084;5.224;2023-04-09T08:49:24;102592.0;;;14.87;59.54
36834;BME280;48003;52.084;5.224;2023-04-09T08:51:00;102592.0;;;14.92;59.09
36834;BME280;48003;52.084;5.224;2023-04-09T08:52:37;102586.99999999999;;;14.49;59.55
36834;BME280;48003;52.084;5.224;2023-04-09T08:55:52;102588.00000000001;;;15.01;58.83
36834;BME280;48003;52.084;5.224;2023-04-09T08:57:28;102588.00000000001;;;14.75;58.85
36834;BME280;48003;52.084;5.224;2023-04-09T08:59:04;102582.0;;;15.06;57.66
36834;BME280;48003;52.084;5.224;2023-04-09T09:02:16;102582.0;;;15.03;57.96
36834;BME280;48003;52.084;5.224;2023-04-09T09:03:56;102582.0;;;14.92;58.7
36834;BME280;48003;52.084;5.224;2023-04-09T09:05:37;102580.0;;;14.98;59.38
36834;BME280;48003;52.084;5.224;2023-04-09T09:09:03;102576.0;;;14.95;58.8
36834;BME280;48003;52.084;5.224;2023-04-09T09:10:43;102573.0;;;15.0;58.98
36834;BME280;48003;52.084;5.224;2023-04-09T09:12:37;102576.0;;;14.97;59.13
36834;BME280;48003;52.084;5.224;2023-04-09T09:14:15;102571.0;;;14.92;59.75
36834;BME280;48003;52.084;5.224;2023-04-09T09:15:54;102575.0;;;14.73;59.99
36834;BME280;48003;52.084;5.224;2023-04-09T09:17:52;102571.0;;;15.22;58.64
36834;BME280;48003;52.084;5.224;2023-04-09T09:21:09;102573.0;;;15.32;57.92
36834;BME280;48003;52.084;5.224;2023-04-09T09:22:48;102572.0;;;15.29;58.24
36834;BME280;48003;52.084;5.224;2023-04-09T09:24:25;102573.0;;;15.3;58.29
36834;BME280;48003;52.084;5.224;2023-04-09T09:27:47;102572.0;;;15.37;58.39
36834;BME280;48003;52.084;5.224;2023-04-09T09:29:24;102571.0;;;15.2;58.49
36834;BME280;48003;52.084;5.224;2023-04-09T09:31:07;102568.0;;;14.8;58.85
36834;BME280;48003;52.084;5.224;2023-04-09T09:32:44;102565.00000000001;;;15.07;58.76
36834;BME280;48003;52.084;5.224;2023-04-09T09:35:59;102567.0;;;14.5;60.27
36834;BME280;48003;52.084;5.224;2023-04-09T09:37:36;102561.99999999999;;;14.91;59.84
36834;BME280;48003;52.084;5.224;2023-04-09T09:39:15;102566.00000000001;;;14.81;59.42
36834;BME280;48003;52.084;5.224;2023-04-09T09:40:52;102561.99999999999;;;14.49;60.26
36834;BME280;48003;52.084;5.224;2023-04-09T09:44:05;102563.00000000001;;;14.75;60.26
36834;BME280;48003;52.084;5.224;2023-04-09T09:45:43;102565.00000000001;;;14.76;59.94
36834;BME280;48003;52.084;5.224;2023-04-09T09:47:22;102559.99999999999;;;14.85;60.25
36834;BME280;48003;52.084;5.224;2023-04-09T09:50:37;102555.0;;;15.5;58.95
36834;BME280;48003;52.084;5.224;2023-04-09T09:52:14;102557.0;;;15.26;59.64
36834;BME280;48003;52.084;5.224;2023-04-09T09:53:50;102559.99999999999;;;15.05;60.6
36834;BME280;48003;52.084;5.224;2023-04-09T09:55:31;102565.00000000001;;;15.17;59.94
36834;BME280;48003;52.084;5.224;2023-04-09T09:58:51;102555.0;;;14.95;60.1
36834;BME280;48003;52.084;5.224;2023-04-09T10:00:31;102558.99999999999;;;14.6;61.53
36834;BME280;48003;52.084;5.224;2023-04-09T10:02:15;102551.0;;;15.06;60.71
36834;BME280;48003;52.084;5.224;2023-04-09T10:03:55;102543.0;;;15.45;59.33
36834;BME280;48003;52.084;5.224;2023-04-09T10:07:10;102546.0;;;15.46;60.28
36834;BME280;48003;52.084;5.224;2023-04-09T10:08:49;102547.0;;;14.95;61.08
36834;BME280;48003;52.084;5.224;2023-04-09T10:10:26;102544.0;;;15.54;59.71
36834;BME280;48003;52.084;5.224;2023-04-09T10:13:45;102534.99999999999;;;15.45;59.6
36834;BME280;48003;52.084;5.224;2023-04-09T10:15:27;102536.99999999999;;;15.32;58.85
36834;BME280;48003;52.084;5.224;2023-04-09T10:17:05;102534.99999999999;;;14.99;59.77
36834;BME280;48003;52.084;5.224;2023-04-09T10:18:41;102531.0;;;14.88;60.42
36834;BME280;48003;52.084;5.224;2023-04-09T10:22:04;102526.0;;;15.19;59.86
36834;BME280;48003;52.084;5.224;2023-04-09T10:23:44;102525.0;;;15.2;60.41
36834;BME280;48003;52.084;5.224;2023-04-09T10:25:23;102519.0;;;15.63;59.48
36834;BME280;48003;52.084;5.224;2023-04-09T10:27:08;102517.0;;;15.37;59.89
36834;BME280;48003;52.084;5.224;2023-04-09T10:30:30;102519.0;;;15.55;58.99
36834;BME280;48003;52.084;5.224;2023-04-09T10:32:07;102514.00000000001;;;15.31;59.64
36834;BME280;48003;52.084;5.224;2023-04-09T10:35:24;102508.0;;;15.69;58.8
36834;BME280;48003;52.084;5.224;2023-04-09T10:38:38;102509.99999999999;;;15.75;59.07
36834;BME280;48003;52.084;5.224;2023-04-09T10:40:17;102505.0;;;15.68;58.69
36834;BME280;48003;52.084;5.224;2023-04-09T10:41:55;102507.0;;;16.11;58.26
36834;BME280;48003;52.084;5.224;2023-04-09T10:43:34;102500.0;;;15.78;58.58
36834;BME280;48003;52.084;5.224;2023-04-09T10:46:52;102502.0;;;16.16;58.02
36834;BME280;48003;52.084;5.224;2023-04-09T10:48:31;102492.0;;;16.52;56.89
36834;BME280;48003;52.084;5.224;2023-04-09T10:50:14;102499.0;;;16.4;58.42
36834;BME280;48003;52.084;5.224;2023-04-09T10:52:01;102494.0;;;16.63;56.71
36834;BME280;48003;52.084;5.224;2023-04-09T10:55:33;102488.00000000001;;;16.41;57.17